createdAt,value
2019-04-10T00:01:25.995Z,21.20
2019-04-10T00:03:56.819Z,19.70
2019-04-10T00:06:27.899Z,21.00
2019-04-10T00:08:58.815Z,21.63
2019-04-10T00:11:32.396Z,21.77
2019-04-10T00:14:03.505Z,20.57
2019-04-10T00:16:34.473Z,22.03
2019-04-10T00:19:04.948Z,23.53
2019-04-10T00:21:35.806Z,21.60
2019-04-10T00:24:06.314Z,20.87
2019-04-10T00:26:38.091Z,22.70
2019-04-10T00:29:08.579Z,22.03
2019-04-10T00:31:40.278Z,19.43
2019-04-10T00:34:11.554Z,21.50
2019-04-10T00:36:43.541Z,20.30
2019-04-10T00:39:14.711Z,19.07
2019-04-10T00:41:46.165Z,21.17
2019-04-10T00:44:16.777Z,20.83
2019-04-10T00:46:48.696Z,20.73
2019-04-10T00:49:19.748Z,22.67
2019-04-10T00:51:50.326Z,20.67
2019-04-10T00:54:21.707Z,21.37
2019-04-10T00:56:52.797Z,21.60
2019-04-10T00:59:24.127Z,18.83
2019-04-10T01:01:54.727Z,20.60
2019-04-10T01:04:25.207Z,22.07
2019-04-10T01:06:56.702Z,19.90
2019-04-10T01:09:27.238Z,20.17
2019-04-10T01:11:57.751Z,19.97
2019-04-10T01:14:28.222Z,20.40
2019-04-10T01:16:59.904Z,20.43
2019-04-10T01:19:30.490Z,20.50
2019-04-10T01:22:01.094Z,21.87
2019-04-10T01:24:31.543Z,19.60
2019-04-10T01:27:02.041Z,21.23
2019-04-10T01:29:33.532Z,20.87
2019-04-10T01:32:04.094Z,20.20
2019-04-10T01:34:35.696Z,20.47
2019-04-10T01:37:08.335Z,19.27
2019-04-10T01:39:40.177Z,19.83
2019-04-10T01:42:10.744Z,20.13
2019-04-10T01:44:41.257Z,20.23
2019-04-10T01:47:11.756Z,21.20
2019-04-10T01:49:43.994Z,22.03
2019-04-10T01:52:15.078Z,20.57
2019-04-10T01:54:45.748Z,21.40
2019-04-10T01:57:16.693Z,20.40
2019-04-10T01:59:47.957Z,20.43
2019-04-10T02:02:37.053Z,21.10
2019-04-10T02:05:08.211Z,20.13
2019-04-10T02:07:38.703Z,21.43
2019-04-10T02:10:10.063Z,20.53
2019-04-10T02:12:43.689Z,21.23
2019-04-10T02:15:16.134Z,21.63
2019-04-10T02:17:46.698Z,19.97
2019-04-10T02:20:17.327Z,21.17
2019-04-10T02:22:48.034Z,19.77
2019-04-10T02:25:19.962Z,19.40
2019-04-10T02:27:50.908Z,21.27
2019-04-10T02:30:21.975Z,19.60
2019-04-10T02:32:54.038Z,20.80
2019-04-10T02:35:25.077Z,19.40
2019-04-10T02:37:58.519Z,21.07
2019-04-10T02:40:28.941Z,21.70
2019-04-10T02:43:00.132Z,20.47
2019-04-10T02:45:32.430Z,21.57
2019-04-10T02:48:04.043Z,19.93
2019-04-10T02:50:35.579Z,19.43
2019-04-10T02:53:07.589Z,20.80
2019-04-10T02:55:38.768Z,19.50
2019-04-10T02:58:10.565Z,19.57
2019-04-10T03:00:42.132Z,21.60
2019-04-10T03:03:15.832Z,20.67
2019-04-10T03:05:46.729Z,20.07
2019-04-10T03:08:17.426Z,19.83
2019-04-10T03:10:53.813Z,21.73
2019-04-10T03:13:21.880Z,22.03
2019-04-10T03:15:53.537Z,20.77
2019-04-10T03:18:25.508Z,20.93
2019-04-10T03:20:56.421Z,20.37
2019-04-10T03:23:27.123Z,20.23
2019-04-10T03:25:57.586Z,20.93
2019-04-10T03:28:29.164Z,21.83
2019-04-10T03:31:02.278Z,20.67
2019-04-10T03:33:37.132Z,20.97
2019-04-10T03:36:05.866Z,20.40
2019-04-10T03:38:49.954Z,20.80
2019-04-10T03:41:08.545Z,21.10
2019-04-10T03:43:39.037Z,19.20
2019-04-10T03:46:09.571Z,22.10
2019-04-10T03:48:40.980Z,19.37
2019-04-10T03:51:14.416Z,21.53
2019-04-10T03:53:45.065Z,21.53
2019-04-10T03:56:18.022Z,20.13
2019-04-10T03:58:51.631Z,21.60
2019-04-10T04:01:22.969Z,22.53
2019-04-10T04:03:53.643Z,22.30
2019-04-10T04:06:24.459Z,21.43
2019-04-10T04:09:03.229Z,21.13
2019-04-10T04:11:27.228Z,20.60
2019-04-10T04:13:57.780Z,22.07
2019-04-10T04:16:28.237Z,51.17
2019-04-10T04:18:59.580Z,52.27
2019-04-10T04:21:30.293Z,66.07
2019-04-10T04:24:01.689Z,52.83
2019-04-10T04:26:32.969Z,58.57
2019-04-10T04:29:03.460Z,146.10
2019-04-10T04:31:33.970Z,76.77
2019-04-10T04:34:04.445Z,33.40
2019-04-10T04:36:35.232Z,24.13
2019-04-10T04:39:18.088Z,22.47
2019-04-10T04:41:40.089Z,19.77
2019-04-10T04:44:10.700Z,19.70
2019-04-10T04:46:43.079Z,22.67
2019-04-10T04:49:13.705Z,22.23
2019-04-10T04:51:44.223Z,21.80
2019-04-10T04:54:15.011Z,21.87
2019-04-10T04:56:46.382Z,21.37
2019-04-10T04:59:16.953Z,20.70
2019-04-10T05:01:47.428Z,21.97
2019-04-10T05:04:17.924Z,21.27
2019-04-10T05:06:48.389Z,20.27
2019-04-10T05:09:30.077Z,20.77
2019-04-10T05:11:51.126Z,23.20
2019-04-10T05:14:21.741Z,22.00
2019-04-10T05:16:52.192Z,30.37
2019-04-10T05:19:22.699Z,42.27
2019-04-10T05:21:53.979Z,38.60
2019-04-10T05:24:24.555Z,26.43
2019-04-10T05:26:55.060Z,24.30
2019-04-10T05:29:28.312Z,22.20
2019-04-10T05:31:58.753Z,22.90
2019-04-10T05:34:29.617Z,21.77
2019-04-10T05:37:00.141Z,23.07
2019-04-10T05:39:40.566Z,23.10
2019-04-10T05:42:06.387Z,22.80
2019-04-10T05:44:42.275Z,22.70
2019-04-10T05:47:13.708Z,22.00
2019-04-10T05:49:44.994Z,22.70
2019-04-10T05:52:18.094Z,22.53
2019-04-10T05:54:49.360Z,21.63
2019-04-10T05:57:21.669Z,22.10
2019-04-10T05:59:52.367Z,22.80
2019-04-10T06:02:23.122Z,21.73
2019-04-10T06:04:55.881Z,35.53
2019-04-10T06:07:27.407Z,87.17
2019-04-10T06:10:04.249Z,91.87
2019-04-10T06:12:30.597Z,27.73
2019-04-10T06:15:02.393Z,24.37
2019-04-10T06:17:32.968Z,23.30
2019-04-10T06:20:05.581Z,22.03
2019-04-10T06:22:36.866Z,22.97
2019-04-10T06:25:10.587Z,23.13
2019-04-10T06:27:40.844Z,21.17
2019-04-10T06:30:12.621Z,21.40
2019-04-10T06:32:43.264Z,21.80
2019-04-10T06:35:14.222Z,23.63
2019-04-10T06:37:46.613Z,22.83
2019-04-10T06:40:21.294Z,22.00
2019-04-10T06:42:52.305Z,23.13
2019-04-10T06:45:24.121Z,21.83
2019-04-10T06:47:54.972Z,20.90
2019-04-10T06:50:26.548Z,21.07
2019-04-10T06:52:57.101Z,20.40
2019-04-10T06:55:28.079Z,22.33
2019-04-10T06:58:01.043Z,44.20
2019-04-10T07:00:32.751Z,106.77
2019-04-10T07:03:03.672Z,36.97
2019-04-10T07:05:42.201Z,22.97
2019-04-10T07:08:14.481Z,22.07
2019-04-10T07:10:48.287Z,23.17
2019-04-10T07:13:12.313Z,22.47
2019-04-10T07:15:46.875Z,21.73
2019-04-10T07:18:20.227Z,21.57
2019-04-10T07:20:50.402Z,23.90
2019-04-10T07:23:25.892Z,23.10
2019-04-10T07:25:54.820Z,21.33
2019-04-10T07:28:25.732Z,20.43
2019-04-10T07:30:59.415Z,23.07
2019-04-10T07:33:28.804Z,21.13
2019-04-10T07:35:59.383Z,22.20
2019-04-10T07:38:30.880Z,21.53
2019-04-10T07:41:01.656Z,21.80
2019-04-10T07:43:32.198Z,22.50
2019-04-10T07:46:02.777Z,23.40
2019-04-10T07:48:33.537Z,20.60
2019-04-10T07:51:04.900Z,21.83
2019-04-10T07:53:35.500Z,23.67
2019-04-10T07:56:09.185Z,23.30
2019-04-10T07:58:40.007Z,22.30
2019-04-10T08:01:12.116Z,22.90
2019-04-10T08:03:43.750Z,21.03
2019-04-10T08:06:15.342Z,21.27
2019-04-10T08:08:46.848Z,23.03
2019-04-10T08:11:17.658Z,23.00
2019-04-10T08:13:51.198Z,20.90
2019-04-10T08:16:23.201Z,22.00
2019-04-10T08:18:54.193Z,21.27
2019-04-10T08:21:24.770Z,20.83
2019-04-10T08:23:56.116Z,19.63
2019-04-10T08:26:28.507Z,20.47
2019-04-10T08:28:59.358Z,22.40
2019-04-10T08:31:30.775Z,22.00
2019-04-10T08:34:01.651Z,19.83
2019-04-10T08:36:32.820Z,20.00
2019-04-10T08:39:05.003Z,21.23
2019-04-10T08:41:35.475Z,20.13
2019-04-10T08:44:06.515Z,21.23
2019-04-10T08:46:39.437Z,21.50
2019-04-10T08:49:10.002Z,19.67
2019-04-10T08:51:41.542Z,21.40
2019-04-10T08:54:12.132Z,21.17
2019-04-10T08:56:42.886Z,19.00
2019-04-10T08:59:13.840Z,20.90
2019-04-10T09:01:45.190Z,20.50
2019-04-10T09:04:17.873Z,18.83
2019-04-10T09:06:49.493Z,19.00
2019-04-10T09:09:20.067Z,17.53
2019-04-10T09:11:51.596Z,17.80
2019-04-10T09:14:23.136Z,17.50
2019-04-10T09:16:53.645Z,17.97
2019-04-10T09:19:25.685Z,17.17
2019-04-10T09:21:57.445Z,20.17
2019-04-10T09:24:28.088Z,22.67
2019-04-10T09:26:58.638Z,17.57
2019-04-10T09:29:32.088Z,17.37
2019-04-10T09:32:06.410Z,20.10
2019-04-10T09:34:37.974Z,19.90
2019-04-10T09:37:08.572Z,31.60
2019-04-10T09:39:39.258Z,34.13
2019-04-10T09:42:10.663Z,21.90
2019-04-10T09:44:41.293Z,20.77
2019-04-10T09:47:11.769Z,17.43
2019-04-10T09:49:46.129Z,16.87
2019-04-10T09:52:14.607Z,16.60
2019-04-10T09:54:45.135Z,16.57
2019-04-10T09:57:15.602Z,16.77
2019-04-10T09:59:47.250Z,15.50
2019-04-10T10:02:18.030Z,33.07
2019-04-10T10:04:50.254Z,63.47
2019-04-10T10:07:20.906Z,27.07
2019-04-10T10:09:51.495Z,15.20
2019-04-10T10:12:21.980Z,14.37
2019-04-10T10:14:52.449Z,15.13
2019-04-10T10:17:24.343Z,14.13
2019-04-10T10:19:55.367Z,14.27
2019-04-10T10:22:27.298Z,15.30
2019-04-10T10:24:57.882Z,14.50
2019-04-10T10:27:28.381Z,14.93
2019-04-10T10:30:00.108Z,14.57
2019-04-10T10:32:33.045Z,14.30
2019-04-10T10:35:07.513Z,14.80
2019-04-10T10:37:38.933Z,14.07
2019-04-10T10:40:10.265Z,14.37
2019-04-10T10:42:41.491Z,14.60
2019-04-10T10:45:12.749Z,14.93
2019-04-10T10:47:44.284Z,14.33
2019-04-10T10:50:15.192Z,14.23
2019-04-10T10:52:45.913Z,14.40
2019-04-10T10:55:17.742Z,14.43
2019-04-10T10:57:49.092Z,15.20
2019-04-10T11:00:21.211Z,14.37
2019-04-10T11:02:51.940Z,15.10
2019-04-10T11:05:23.174Z,15.37
2019-04-10T11:07:53.739Z,14.40
2019-04-10T11:10:27.517Z,34.57
2019-04-10T11:12:58.371Z,17.53
2019-04-10T11:15:29.022Z,15.47
2019-04-10T11:18:00.717Z,15.50
2019-04-10T11:20:34.036Z,15.33
2019-04-10T11:23:06.136Z,16.37
2019-04-10T11:25:38.269Z,15.83
2019-04-10T11:28:08.848Z,16.37
2019-04-10T11:30:41.070Z,14.63
2019-04-10T11:33:12.441Z,14.60
2019-04-10T11:35:43.931Z,16.07
2019-04-10T11:38:16.206Z,15.20
2019-04-10T11:40:47.351Z,17.63
2019-04-10T11:43:19.033Z,17.80
2019-04-10T11:45:53.812Z,17.00
2019-04-10T11:48:23.005Z,20.37
2019-04-10T11:50:59.098Z,21.60
2019-04-10T11:53:27.334Z,16.90
2019-04-10T11:56:00.143Z,18.60
2019-04-10T11:58:31.220Z,18.13
2019-04-10T12:01:04.548Z,17.43
2019-04-10T12:03:35.027Z,18.77
2019-04-10T12:06:06.945Z,17.80
2019-04-10T12:09:04.332Z,17.63
2019-04-10T12:11:14.584Z,17.23
2019-04-10T12:13:42.739Z,17.10
2019-04-10T12:16:14.603Z,16.23
2019-04-10T12:18:46.721Z,16.37
2019-04-10T12:21:17.739Z,17.20
2019-04-10T12:23:50.104Z,16.67
2019-04-10T12:26:20.579Z,17.40
2019-04-10T12:28:51.908Z,16.70
2019-04-10T12:31:24.225Z,16.80
2019-04-10T12:33:54.897Z,16.57
2019-04-10T12:36:25.406Z,17.70
2019-04-10T12:38:56.185Z,16.53
2019-04-10T12:41:27.706Z,16.20
2019-04-10T12:43:59.114Z,16.30
2019-04-10T12:46:29.695Z,16.97
2019-04-10T12:49:02.243Z,17.03
2019-04-10T12:51:34.846Z,17.50
2019-04-10T12:54:05.627Z,16.60
2019-04-10T12:56:36.143Z,16.77
2019-04-10T12:59:06.972Z,16.20
2019-04-10T13:01:40.846Z,17.93
2019-04-10T13:04:11.728Z,17.60
2019-04-10T13:06:42.354Z,18.20
2019-04-10T13:09:14.432Z,17.40
2019-04-10T13:11:45.052Z,17.60
2019-04-10T13:14:16.806Z,17.10
2019-04-10T13:16:47.922Z,16.27
2019-04-10T13:19:18.777Z,13.90
2019-04-10T13:21:51.643Z,12.67
2019-04-10T13:24:22.274Z,12.50
2019-04-10T13:26:53.153Z,12.93
2019-04-10T13:29:25.920Z,12.53
2019-04-10T13:31:59.297Z,11.70
2019-04-10T13:34:29.815Z,12.50
2019-04-10T13:37:00.299Z,11.80
2019-04-10T13:39:30.913Z,14.60
2019-04-10T13:42:01.425Z,14.50
2019-04-10T13:44:32.928Z,11.87
2019-04-10T13:47:04.999Z,11.30
2019-04-10T13:49:35.754Z,11.27
2019-04-10T13:52:06.362Z,12.07
2019-04-10T13:54:36.889Z,11.33
2019-04-10T13:57:07.801Z,11.53
2019-04-10T13:59:39.355Z,11.80
2019-04-10T14:02:13.230Z,12.20
2019-04-10T14:04:43.806Z,13.60
2019-04-10T14:07:15.758Z,12.57
2019-04-10T14:09:50.174Z,12.40
2019-04-10T14:12:18.717Z,13.63
2019-04-10T14:14:51.035Z,13.20
2019-04-10T14:17:21.793Z,12.90
2019-04-10T14:19:54.127Z,12.83
2019-04-10T14:22:24.697Z,14.20
2019-04-10T14:24:56.803Z,13.27
2019-04-10T14:27:30.207Z,15.37
2019-04-10T14:30:00.821Z,15.20
2019-04-10T14:32:36.031Z,15.93
2019-04-10T14:35:09.657Z,16.47
2019-04-10T14:37:41.313Z,17.03
2019-04-10T14:40:13.894Z,16.70
2019-04-10T14:42:44.366Z,19.00
2019-04-10T14:45:15.540Z,18.93
2019-04-10T14:47:46.126Z,18.57
2019-04-10T14:50:17.733Z,19.00
2019-04-10T14:52:48.226Z,20.27
2019-04-10T14:55:20.345Z,20.27
2019-04-10T14:57:50.972Z,19.80
2019-04-10T15:00:26.536Z,19.70
2019-04-10T15:02:58.152Z,20.80
2019-04-10T15:05:30.205Z,19.37
2019-04-10T15:08:01.658Z,20.57
2019-04-10T15:10:32.228Z,21.47
2019-04-10T15:13:10.247Z,20.90
2019-04-10T15:15:36.500Z,21.90
2019-04-10T15:18:08.939Z,23.13
2019-04-10T15:20:43.276Z,22.73
2019-04-10T15:23:13.812Z,24.27
2019-04-10T15:25:44.320Z,22.60
2019-04-10T15:28:16.009Z,21.20
2019-04-10T15:30:46.658Z,23.90
2019-04-10T15:33:17.127Z,21.83
2019-04-10T15:35:47.608Z,20.83
2019-04-10T15:38:18.443Z,20.30
2019-04-10T15:40:49.003Z,21.40
2019-04-10T15:43:19.487Z,22.77
2019-04-10T15:45:50.401Z,23.40
2019-04-10T15:48:21.136Z,23.17
2019-04-10T15:50:51.828Z,22.03
2019-04-10T15:53:22.477Z,22.30
2019-04-10T15:55:53.725Z,23.00
2019-04-10T15:58:25.560Z,24.70
2019-04-10T16:00:57.189Z,23.90
2019-04-10T16:03:30.240Z,29.73
2019-04-10T16:06:00.973Z,22.83
2019-04-10T16:08:32.500Z,21.90
2019-04-10T16:11:13.878Z,21.93
2019-04-10T16:13:46.363Z,23.00
2019-04-10T16:16:21.258Z,21.47
2019-04-10T16:18:55.065Z,20.60
2019-04-10T16:21:26.820Z,21.03
2019-04-10T16:23:59.107Z,20.97
2019-04-10T16:26:49.632Z,19.97
2019-04-10T16:29:20.343Z,22.70
2019-04-10T16:31:50.856Z,22.47
2019-04-10T16:34:21.388Z,21.50
2019-04-10T16:36:52.129Z,24.00
2019-04-10T16:39:22.926Z,20.13
2019-04-10T16:41:54.544Z,21.87
2019-04-10T16:44:27.071Z,21.47
2019-04-10T16:46:59.520Z,24.10
2019-04-10T16:49:30.901Z,22.17
2019-04-10T16:52:01.491Z,21.87
2019-04-10T16:54:35.450Z,22.63
2019-04-10T16:57:06.589Z,30.80
2019-04-10T16:59:37.580Z,47.00
2019-04-10T17:02:09.311Z,25.57
2019-04-10T17:04:39.873Z,23.10
2019-04-10T17:07:10.631Z,22.93
2019-04-10T17:09:43.815Z,22.50
2019-04-10T17:12:14.053Z,21.90
2019-04-10T17:14:48.216Z,20.97
2019-04-10T17:17:20.107Z,21.67
2019-04-10T17:19:55.545Z,23.00
2019-04-10T17:22:30.834Z,22.77
2019-04-10T17:24:57.787Z,24.90
2019-04-10T17:27:28.417Z,23.60
2019-04-10T17:29:58.916Z,21.70
2019-04-10T17:32:29.392Z,23.30
2019-04-10T17:35:01.441Z,24.17
2019-04-10T17:37:31.926Z,23.03
2019-04-10T17:40:03.977Z,25.40
2019-04-10T17:42:34.743Z,25.13
2019-04-10T17:45:07.286Z,23.97
2019-04-10T17:47:38.802Z,23.90
2019-04-10T17:50:12.059Z,26.57
2019-04-10T17:52:47.584Z,24.50
2019-04-10T17:55:19.733Z,23.97
2019-04-10T17:57:53.126Z,24.43
2019-04-10T18:00:27.058Z,24.57
2019-04-10T18:02:57.623Z,25.90
2019-04-10T18:05:28.802Z,33.13
2019-04-10T18:08:00.483Z,32.67
2019-04-10T18:10:43.456Z,28.70
2019-04-10T18:13:08.468Z,29.53
2019-04-10T18:15:40.005Z,34.60
2019-04-10T18:18:11.540Z,32.23
2019-04-10T18:20:42.308Z,30.43
2019-04-10T18:23:15.427Z,26.93
2019-04-10T18:25:47.623Z,26.57
2019-04-10T18:28:19.150Z,26.93
2019-04-10T18:30:49.888Z,28.47
2019-04-10T18:33:20.450Z,28.60
2019-04-10T18:35:51.194Z,30.43
2019-04-10T18:38:21.865Z,31.63
2019-04-10T18:40:58.970Z,31.30
2019-04-10T18:43:25.957Z,32.27
2019-04-10T18:46:07.059Z,30.80
2019-04-10T18:48:29.092Z,32.87
2019-04-10T18:50:59.597Z,33.20
2019-04-10T18:53:30.131Z,30.80
2019-04-10T18:56:00.824Z,32.27
2019-04-10T18:58:33.839Z,32.63
2019-04-10T19:01:11.446Z,29.73
2019-04-10T19:03:54.635Z,31.40
2019-04-10T19:06:25.178Z,29.93
2019-04-10T19:09:07.731Z,26.27
2019-04-10T19:11:33.241Z,27.47
2019-04-10T19:14:00.147Z,27.97
2019-04-10T19:16:30.635Z,27.73
2019-04-10T19:19:02.081Z,27.67
2019-04-10T19:21:32.804Z,27.13
2019-04-10T19:24:03.608Z,26.80
2019-04-10T19:26:34.279Z,27.70
2019-04-10T19:29:05.521Z,25.37
2019-04-10T19:31:38.527Z,23.80
2019-04-10T19:34:09.374Z,24.00
2019-04-10T19:36:40.024Z,25.87
2019-04-10T19:39:11.071Z,24.73
2019-04-10T19:41:41.974Z,25.67
2019-04-10T19:44:12.966Z,24.90
2019-04-10T19:46:45.926Z,23.60
2019-04-10T19:49:16.510Z,22.37
2019-04-10T19:51:47.023Z,25.30
2019-04-10T19:54:17.819Z,23.73
2019-04-10T19:56:48.820Z,23.83
2019-04-10T19:59:20.577Z,22.87
2019-04-10T20:01:51.314Z,23.87
2019-04-10T20:04:21.859Z,22.40
2019-04-10T20:06:52.433Z,24.20
2019-04-10T20:09:24.289Z,23.20
2019-04-10T20:11:57.213Z,21.97
2019-04-10T20:14:27.075Z,22.80
2019-04-10T20:16:57.670Z,24.60
2019-04-10T20:19:28.716Z,29.00
2019-04-10T20:21:59.222Z,27.13
2019-04-10T20:24:31.053Z,29.80
2019-04-10T20:27:01.568Z,27.37
2019-04-10T20:29:32.109Z,24.30
2019-04-10T20:32:04.158Z,25.57
2019-04-10T20:34:35.714Z,25.17
2019-04-10T20:37:09.392Z,24.40
2019-04-10T20:39:41.170Z,24.70
2019-04-10T20:42:11.970Z,24.37
2019-04-10T20:44:43.061Z,23.30
2019-04-10T20:47:13.621Z,28.60
2019-04-10T20:49:44.715Z,25.03
2019-04-10T20:52:15.240Z,24.13
2019-04-10T20:54:46.794Z,24.93
2019-04-10T20:57:17.399Z,22.60
2019-04-10T20:59:48.867Z,23.23
2019-04-10T21:02:20.230Z,23.50
2019-04-10T21:04:56.573Z,22.97
2019-04-10T21:07:23.438Z,23.17
2019-04-10T21:09:54.455Z,24.20
2019-04-10T21:12:25.861Z,23.07
2019-04-10T21:14:56.680Z,21.00
2019-04-10T21:17:27.618Z,23.37
2019-04-10T21:19:58.130Z,22.70
2019-04-10T21:22:28.749Z,22.50
2019-04-10T21:24:59.204Z,22.97
2019-04-10T21:27:30.000Z,24.23
2019-04-10T21:30:19.875Z,23.37
2019-04-10T21:32:58.425Z,23.30
2019-04-10T21:35:37.041Z,23.63
2019-04-10T21:38:07.788Z,24.63
2019-04-10T21:40:39.000Z,23.37
2019-04-10T21:43:10.087Z,22.90
2019-04-10T21:45:41.320Z,22.43
2019-04-10T21:48:12.617Z,22.40
2019-04-10T21:50:43.941Z,24.50
2019-04-10T21:53:14.502Z,24.23
2019-04-10T21:55:45.887Z,22.60
2019-04-10T21:58:16.524Z,22.50
2019-04-10T22:00:54.849Z,22.60
2019-04-10T22:03:27.546Z,20.17
2019-04-10T22:06:14.639Z,21.03
2019-04-10T22:08:47.960Z,24.00
2019-04-10T22:11:19.124Z,20.20
2019-04-10T22:13:50.603Z,21.57
2019-04-10T22:16:24.027Z,22.87
2019-04-10T22:18:54.594Z,21.40
2019-04-10T22:21:25.068Z,21.60
2019-04-10T22:23:56.638Z,21.90
2019-04-10T22:26:27.694Z,21.80
2019-04-10T22:28:58.377Z,21.70
2019-04-10T22:31:28.947Z,21.97
2019-04-10T22:33:59.466Z,21.73
2019-04-10T22:36:31.069Z,21.87
2019-04-10T22:39:02.631Z,22.17
2019-04-10T22:41:34.145Z,21.20
2019-04-10T22:44:05.870Z,21.27
2019-04-10T22:46:36.357Z,22.00
2019-04-10T22:49:06.933Z,21.30
2019-04-10T22:51:37.714Z,21.43
2019-04-10T22:54:08.438Z,21.00
2019-04-10T22:56:39.921Z,22.37
2019-04-10T22:59:10.492Z,21.47
2019-04-10T23:01:40.964Z,21.90
2019-04-10T23:04:12.256Z,21.30
2019-04-10T23:06:42.769Z,21.40
2019-04-10T23:09:13.873Z,20.73
2019-04-10T23:11:46.321Z,21.30
2019-04-10T23:14:16.682Z,20.87
2019-04-10T23:16:48.324Z,21.50
2019-04-10T23:19:18.941Z,21.73
2019-04-10T23:21:49.416Z,20.43
2019-04-10T23:24:19.918Z,21.10
2019-04-10T23:26:50.403Z,21.53
2019-04-10T23:29:20.913Z,21.87
2019-04-10T23:31:51.999Z,23.20
2019-04-10T23:34:22.966Z,20.97
2019-04-10T23:36:54.076Z,21.40
2019-04-10T23:39:24.592Z,20.40
2019-04-10T23:41:55.068Z,20.70
2019-04-10T23:44:25.570Z,20.87
2019-04-10T23:46:56.033Z,21.10
2019-04-10T23:49:27.704Z,21.97
2019-04-10T23:51:59.135Z,19.70
2019-04-10T23:54:29.668Z,20.73
2019-04-10T23:57:01.070Z,19.40
2019-04-10T23:59:31.617Z,21.10
